USAV Henry Knox — ADTG — position and weather

sailwx.info

Track history (hours):
 
Tides and Currents Weather Stations Pressure Air Temp Water Temp Dewpoint Dewpoint Depression Visibility Wind Speed Wind Dir Waves Ship Positions

USAV Henry Knox

Last reported at 2018-Jul-18 02:38 UTC. Time now 2018-Jul-18 04:59 UTC.
Position N 48°06' W 122°39'.

; draft 5 m.

Type: Towing. MMSI: 368720000.

Date/timePositionNaut miles runAvg speedWind from/ knotsBaromVisibWave heightAir tempDewpointWater temp
2018-Jul-18 02:38N 48°06' W 122°39'1 4.2
2018-Jul-18 02:30N 48°06' W 122°38'9 5.5
2018-Jul-18 00:51N 47°58' W 122°33'2 5.4
2018-Jul-18 00:30N 47°57' W 122°30'3 6.0
2018-Jul-18 00:00N 47°54' W 122°28'3 6.3
2018-Jul-17 23:30N 47°51' W 122°27'4 7.5
2018-Jul-17 23:00N 47°47' W 122°26'4 7.4
2018-Jul-17 22:30N 47°44' W 122°26'4 7.6
2018-Jul-17 22:00N 47°40' W 122°27'4 8.1
2018-Jul-17 21:30N 47°36' W 122°26'4 7.5
2018-Jul-17 21:00N 47°32' W 122°25'4 7.1
2018-Jul-17 20:30N 47°29' W 122°24'4 7.4
2018-Jul-17 20:00N 47°25' W 122°22'3 6.4
2018-Jul-17 19:30N 47°22' W 122°22'4 7.4
2018-Jul-17 19:00N 47°20' W 122°26'3 0.3
2018-Jul-17 08:49N 47°17' W 122°25'0 0.0
2018-Jul-17 08:07N 47°17' W 122°25'0 0.0
2018-Jul-17 07:55N 47°17' W 122°25'0 0.0
2018-Jul-17 07:28N 47°17' W 122°25'0 0.0
2018-Jul-17 06:58N 47°17' W 122°25'0 0.0
2018-Jul-17 06:22N 47°17' W 122°25'0 0.0
2018-Jul-17 05:55N 47°17' W 122°25'0 0.0
2018-Jul-17 05:22N 47°17' W 122°25'0 0.0
2018-Jul-17 04:58N 47°17' W 122°25'0 0.0
2018-Jul-17 04:22N 47°17' W 122°25'0 0.0
2018-Jul-17 03:52N 47°17' W 122°25'0 0.0
2018-Jul-17 03:19N 47°17' W 122°25'0 0.0
2018-Jul-17 02:55N 47°17' W 122°25'0 0.0
2018-Jul-17 02:28N 47°17' W 122°25'0 0.0
2018-Jul-17 01:58N 47°17' W 122°25'0 0.0
2018-Jul-17 01:19N 47°17' W 122°25'0 0.0
2018-Jul-17 00:58N 47°17' W 122°25'0 0.0
2018-Jul-17 00:25N 47°17' W 122°25'0 0.0
2018-Jul-16 22:28N 47°17' W 122°25'0 0.0
2018-Jul-16 21:49N 47°17' W 122°25'0 0.0
2018-Jul-16 21:22N 47°17' W 122°25'0 0.0
2018-Jul-16 20:58N 47°17' W 122°25'0 0.0
2018-Jul-16 20:25N 47°17' W 122°25'0 0.0
2018-Jul-16 19:43N 47°17' W 122°25'0 0.0
2018-Jul-16 19:19N 47°17' W 122°25'0 0.0
2018-Jul-16 18:55N 47°17' W 122°25'0 0.0
2018-Jul-16 16:22N 47°17' W 122°25'0 0.0
2018-Jul-16 15:58N 47°17' W 122°25'0 0.0
2018-Jul-16 15:28N 47°17' W 122°25'0 0.0
2018-Jul-16 14:49N 47°17' W 122°25'0 0.0
2018-Jul-16 14:22N 47°17' W 122°25'0 0.0
2018-Jul-16 13:52N 47°17' W 122°25'0 0.0
2018-Jul-16 13:28N 47°17' W 122°25'0 0.0
2018-Jul-16 11:58N 47°17' W 122°25'0 0.0
2018-Jul-16 11:19N 47°17' W 122°25'0 0.0
2018-Jul-16 10:58N 47°17' W 122°25'0 0.0
2018-Jul-16 06:37N 47°17' W 122°25'0 0.0
2018-Jul-16 06:22N 47°17' W 122°25'0 0.0
2018-Jul-16 04:58N 47°17' W 122°25'0 0.0
2018-Jul-16 04:28N 47°17' W 122°25'0 0.0
2018-Jul-16 03:55N 47°17' W 122°25'0 0.0
2018-Jul-16 02:55N 47°17' W 122°25'0 0.0
2018-Jul-16 01:22N 47°17' W 122°25'0 0.0
2018-Jul-16 00:49N 47°17' W 122°25'0 0.0
2018-Jul-15 23:46N 47°17' W 122°25'0 0.0
2018-Jul-15 23:28N 47°17' W 122°25'0 0.0
2018-Jul-15 22:58N 47°17' W 122°25'0 0.0
2018-Jul-15 21:46N 47°17' W 122°25'0 0.0
2018-Jul-15 21:28N 47°17' W 122°25'0 0.0
2018-Jul-15 20:02N 47°17' W 122°25'0 0.0
2018-Jul-15 19:59N 47°17' W 122°25'0 0.2
2018-Jul-15 19:26N 47°17' W 122°25'0 0.7
2018-Jul-15 19:01N 47°17' W 122°25'2 3.2
2018-Jul-15 18:31N 47°17' W 122°27'0 0.5
2018-Jul-15 18:01N 47°17' W 122°27'1 2.8
2018-Jul-15 17:30N 47°17' W 122°25'0 0.1
2018-Jul-15 16:58N 47°17' W 122°25'0 0.1
2018-Jul-15 16:30N 47°17' W 122°25'0 0.0
2018-Jul-15 16:00N 47°17' W 122°25'0 0.0
2018-Jul-15 15:30N 47°17' W 122°25'0 0.0
2018-Jul-15 15:00N 47°17' W 122°25'0 0.0
2018-Jul-15 14:24N 47°17' W 122°25'0 0.0
2018-Jul-15 14:00N 47°17' W 122°25'0 0.0
2018-Jul-15 13:30N 47°17' W 122°25'0 0.0
2018-Jul-15 13:00N 47°17' W 122°25'0 0.0
2018-Jul-15 12:30N 47°17' W 122°25'0 0.0
2018-Jul-15 12:00N 47°17' W 122°25'0 0.0
2018-Jul-15 11:30N 47°17' W 122°25'0 0.0
2018-Jul-15 10:48N 47°17' W 122°25'0 0.0
2018-Jul-15 10:24N 47°17' W 122°25'0 0.0
2018-Jul-15 09:54N 47°17' W 122°25'0 0.0
2018-Jul-15 09:30N 47°17' W 122°25'0 0.0
2018-Jul-15 09:00N 47°17' W 122°25'0 0.0
2018-Jul-15 08:30N 47°17' W 122°25'0 0.0
2018-Jul-15 08:00N 47°17' W 122°25'0 0.0
2018-Jul-15 07:24N 47°17' W 122°25'0 0.0
2018-Jul-15 07:00N 47°17' W 122°25'0 0.0
2018-Jul-15 06:30N 47°17' W 122°25'0 0.0
2018-Jul-15 05:42N 47°17' W 122°25'0 0.0
2018-Jul-15 04:42N 47°17' W 122°25'0 0.0
2018-Jul-15 02:24N 47°17' W 122°25'0 0.0
2018-Jul-15 01:06N 47°17' W 122°25'0 0.0
2018-Jul-15 00:54N 47°17' W 122°25'0 0.0
2018-Jul-15 00:30N 47°17' W 122°25'0 0.0
2018-Jul-14 23:54N 47°17' W 122°25'0 0.0
2018-Jul-14 23:12N 47°17' W 122°25'0 0.0
2018-Jul-14 21:54N 47°17' W 122°25'0 0.0
2018-Jul-14 21:30N 47°17' W 122°25'0 0.0
2018-Jul-14 21:00N 47°17' W 122°25'0 0.0
2018-Jul-14 20:24N 47°17' W 122°25'0 0.0
2018-Jul-14 19:48N 47°17' W 122°25'0 0.0
2018-Jul-14 19:30N 47°17' W 122°25'0 0.0
2018-Jul-14 19:00N 47°17' W 122°25'0 0.0
2018-Jul-14 18:30N 47°17' W 122°25'0 0.0
2018-Jul-14 18:00N 47°17' W 122°25'0 0.0
2018-Jul-14 17:24N 47°17' W 122°25'0 0.0
2018-Jul-14 17:00N 47°17' W 122°25'0 0.0
2018-Jul-14 16:30N 47°17' W 122°25'0 0.0
2018-Jul-14 16:00N 47°17' W 122°25'0 0.0
2018-Jul-14 15:30N 47°17' W 122°25'0 0.0
2018-Jul-14 14:48N 47°17' W 122°25'0 0.0
2018-Jul-14 14:24N 47°17' W 122°25'0 0.0
2018-Jul-14 13:30N 47°17' W 122°25'0 0.0
2018-Jul-14 13:00N 47°17' W 122°25'0 0.0
2018-Jul-14 12:30N 47°17' W 122°25'0 0.0
2018-Jul-14 12:00N 47°17' W 122°25'0 0.0
2018-Jul-14 11:18N 47°17' W 122°25'0 0.0
2018-Jul-14 10:48N 47°17' W 122°25'0 0.0
2018-Jul-14 10:30N 47°17' W 122°25'0 0.0
2018-Jul-14 09:54N 47°17' W 122°25'0 0.0
2018-Jul-14 09:30N 47°17' W 122°25'0 0.0
2018-Jul-14 09:00N 47°17' W 122°25'0 0.0
2018-Jul-14 08:30N 47°17' W 122°25'0 0.0
2018-Jul-14 08:00N 47°17' W 122°25'0 0.0
2018-Jul-14 07:30N 47°17' W 122°25'0 0.0
2018-Jul-14 06:54N 47°17' W 122°25'0 0.0
2018-Jul-14 06:30N 47°17' W 122°25'0 0.0
2018-Jul-14 06:00N 47°17' W 122°25'0 0.0
2018-Jul-14 05:30N 47°17' W 122°25'0 0.0
2018-Jul-14 05:00N 47°17' W 122°25'0 0.0
2018-Jul-14 04:30N 47°17' W 122°25'0 0.0
2018-Jul-14 03:54N 47°17' W 122°25'0 0.0
2018-Jul-14 03:30N 47°17' W 122°25'0 0.0
2018-Jul-14 02:48N 47°17' W 122°25'0 0.0
2018-Jul-14 02:12N 47°17' W 122°25'0 0.0
2018-Jul-14 02:00N 47°17' W 122°25'0 0.0
2018-Jul-14 01:30N 47°17' W 122°25'0 0.0
2018-Jul-14 01:00N 47°17' W 122°25'0 0.0
2018-Jul-13 23:24N 47°17' W 122°25'0 0.0
2018-Jul-13 23:00N 47°17' W 122°25'0 0.0
2018-Jul-13 21:30N 47°17' W 122°25'0 0.0
2018-Jul-13 20:56N 47°17' W 122°25'0 0.0
2018-Jul-13 20:30N 47°17' W 122°25'0 0.0
2018-Jul-13 18:31N 47°17' W 122°25'0 0.0
2018-Jul-13 18:29N 47°17' W 122°25'2 4.2
2018-Jul-13 17:58N 47°18' W 122°28'1 2.2
2018-Jul-13 17:28N 47°18' W 122°29'4 7.8
2018-Jul-13 17:00N 47°21' W 122°32'4 8.3
2018-Jul-13 16:30N 47°26' W 122°32'4 8.3
2018-Jul-13 16:00N 47°29' W 122°30'3 5.8
2018-Jul-13 15:30N 47°32' W 122°32'0 0.2
2018-Jul-13 14:58N 47°32' W 122°32'0 0.0
2018-Jul-13 13:58N 47°32' W 122°32'0 0.0
2018-Jul-13 13:28N 47°32' W 122°32'0 0.0
2018-Jul-13 12:58N 47°32' W 122°32'0 0.0
2018-Jul-13 12:25N 47°32' W 122°32'0 0.0
2018-Jul-13 11:55N 47°32' W 122°32'0 0.0
2018-Jul-13 11:28N 47°32' W 122°32'0 0.0
2018-Jul-13 10:58N 47°32' W 122°32'0 0.0
2018-Jul-13 10:28N 47°32' W 122°32'0 0.0
2018-Jul-13 09:58N 47°32' W 122°32'0 0.0
2018-Jul-13 09:28N 47°32' W 122°32'0 0.0
2018-Jul-13 08:58N 47°32' W 122°32'0 0.0
2018-Jul-13 08:28N 47°32' W 122°32'0 0.0
2018-Jul-13 07:58N 47°32' W 122°32'0 0.0
2018-Jul-13 07:28N 47°32' W 122°32'0 0.1
2018-Jul-13 06:58N 47°32' W 122°32'0 0.0
2018-Jul-13 06:28N 47°32' W 122°32'0 0.1
2018-Jul-13 05:58N 47°32' W 122°32'0 0.0
2018-Jul-13 05:28N 47°32' W 122°32'0 0.0
2018-Jul-13 04:58N 47°32' W 122°32'0 0.0
2018-Jul-13 04:28N 47°32' W 122°32'0 0.1
2018-Jul-13 03:58N 47°32' W 122°32'1 2.0
2018-Jul-13 03:30N 47°33' W 122°31'2 3.3
2018-Jul-13 03:00N 47°34' W 122°29'4 7.6
2018-Jul-13 02:30N 47°38' W 122°28'5 9.0
2018-Jul-13 02:00N 47°42' W 122°28'4 9.0
2018-Jul-13 01:30N 47°47' W 122°27'5 9.1
2018-Jul-13 01:00N 47°51' W 122°29'4 9.0
2018-Jul-13 00:30N 47°56' W 122°31'710.5
2018-Jul-12 23:51N 48°01' W 122°38'4 8.9
2018-Jul-12 23:22N 48°05' W 122°40'51 8.4
2018-Jul-12 17:15N 48°13' W 123°56'2 6.8
2018-Jul-12 16:58N 48°13' W 123°58'4 8.1
2018-Jul-12 16:29N 48°15' W 124°04'1 2.7
2018-Jul-12 16:00N 48°16' W 124°05'1 1.4
2018-Jul-12 15:30N 48°16' W 124°06'3 5.4
2018-Jul-12 15:00N 48°18' W 124°09'2 4.6
2018-Jul-12 14:30N 48°18' W 124°13'1 1.5
2018-Jul-12 13:59N 48°18' W 124°14'2 3.6
2018-Jul-12 13:30N 48°19' W 124°16'2 4.1
2018-Jul-12 12:58N 48°20' W 124°19'2 4.5
2018-Jul-12 12:30N 48°21' W 124°22'2 5.0
2018-Jul-12 12:00N 48°22' W 124°25'3 5.1
2018-Jul-12 11:28N 48°23' W 124°29'2 5.1
2018-Jul-12 11:00N 48°24' W 124°32'3 5.1
2018-Jul-12 10:30N 48°25' W 124°36'3 5.1
2018-Jul-12 10:00N 48°26' W 124°39'3 5.4
2018-Jul-12 09:30N 48°27' W 124°43'3 5.6
2018-Jul-12 09:00N 48°29' W 124°46'3 5.4
2018-Jul-12 08:29N 48°32' W 124°47'3 5.9
2018-Jul-12 08:00N 48°31' W 124°43'3 6.2
2018-Jul-12 07:30N 48°30' W 124°39'3 5.6
2018-Jul-12 07:00N 48°28' W 124°35'3 5.6
2018-Jul-12 06:30N 48°27' W 124°31'3 5.7
2018-Jul-12 06:00N 48°26' W 124°27'3 5.9
2018-Jul-12 05:30N 48°25' W 124°23'2 5.0
2018-Jul-12 05:00N 48°24' W 124°19'3 6.9
2018-Jul-12 04:30N 48°23' W 124°15'4 7.4
2018-Jul-12 04:00N 48°21' W 124°10'4 7.7
2018-Jul-12 03:30N 48°20' W 124°04'4 7.7
2018-Jul-12 03:00N 48°18' W 123°59'4 7.6
2018-Jul-12 02:29N 48°17' W 123°53'52 7.0
2018-Jul-11 19:06N 48°04' W 122°38'1 7.4
2018-Jul-11 18:56N 48°03' W 122°38'4 7.4
2018-Jul-11 18:24N 47°59' W 122°35'3 7.5
2018-Jul-11 18:00N 47°57' W 122°32'1 2.6
2018-Jul-11 17:30N 47°57' W 122°30'1 1.3
2018-Jul-11 17:00N 47°58' W 122°29'0 0.7
2018-Jul-11 16:30N 47°58' W 122°29'0 0.3
2018-Jul-11 16:00N 47°58' W 122°29'0 0.8
2018-Jul-11 15:31N 47°58' W 122°28'0 0.3
2018-Jul-11 14:58N 47°58' W 122°28'0 0.0
2018-Jul-11 14:28N 47°58' W 122°28'0 0.0
2018-Jul-11 13:58N 47°58' W 122°28'0 0.0
2018-Jul-11 13:28N 47°58' W 122°28'0 0.1
2018-Jul-11 12:58N 47°58' W 122°28'0 0.0
2018-Jul-11 12:28N 47°58' W 122°28'0 0.0
2018-Jul-11 11:58N 47°58' W 122°28'0 0.1
2018-Jul-11 11:28N 47°58' W 122°28'0 0.1
2018-Jul-11 10:52N 47°58' W 122°28'0 0.0
2018-Jul-11 10:19N 47°58' W 122°28'0 0.1
2018-Jul-11 09:58N 47°58' W 122°28'0 0.0
2018-Jul-11 09:28N 47°58' W 122°28'0 0.0
2018-Jul-11 08:58N 47°58' W 122°28'0 0.0
2018-Jul-11 08:28N 47°58' W 122°28'0 0.0
2018-Jul-11 07:58N 47°58' W 122°28'0 0.0
2018-Jul-11 07:28N 47°58' W 122°28'0 0.0
2018-Jul-11 06:58N 47°58' W 122°28'0 0.0
2018-Jul-11 06:28N 47°58' W 122°28'0 0.0
2018-Jul-11 05:58N 47°58' W 122°28'0 0.0
2018-Jul-11 05:22N 47°58' W 122°28'0 0.8
2018-Jul-11 04:54N 47°58' W 122°29'0 0.1
2018-Jul-11 04:30N 47°58' W 122°29'0 0.0
2018-Jul-11 04:00N 47°58' W 122°29'0 0.1
2018-Jul-11 03:30N 47°58' W 122°29'0 0.0
2018-Jul-11 03:00N 47°58' W 122°29'0 0.0
2018-Jul-11 02:30N 47°58' W 122°29'0 0.0
2018-Jul-11 02:00N 47°58' W 122°29'0 0.9
2018-Jul-11 01:28N 47°57' W 122°29'2 4.5
2018-Jul-11 01:00N 47°55' W 122°29'611.4
2018-Jul-11 00:30N 47°50' W 122°27'510.5
2018-Jul-11 00:00N 47°44' W 122°26'510.8
2018-Jul-10 23:30N 47°39' W 122°27'510.5
2018-Jul-10 23:00N 47°34' W 122°26'5 9.2
2018-Jul-10 22:30N 47°30' W 122°30'510.2
2018-Jul-10 22:00N 47°25' W 122°32'5 8.5
2018-Jul-10 21:28N 47°20' W 122°32'2 4.1
2018-Jul-10 21:00N 47°19' W 122°30'4 0.4
2018-Jul-10 09:39N 47°17' W 122°25'0 0.0
2018-Jul-10 09:15N 47°17' W 122°25'0 0.0
2018-Jul-09 09:51N 47°17' W 122°25'0 0.0
2018-Jul-09 07:21N 47°17' W 122°25'0 0.0
2018-Jul-09 06:57N 47°17' W 122°25'0 0.0
2018-Jul-09 05:15N 47°17' W 122°25'0 0.0
2018-Jul-08 12:57N 47°17' W 122°25'0 0.0
2018-Jul-08 11:39N 47°17' W 122°25'0 0.0
2018-Jul-08 11:09N 47°17' W 122°25'0 0.0
2018-Jul-08 10:57N 47°17' W 122°25'  
Track history (hours):
 
Tides and Currents Weather Stations Pressure Air Temp Water Temp Dewpoint Dewpoint Depression Visibility Wind Speed Wind Dir Waves Ship Positions

USAV Henry Knox

Last reported at 2018-Jul-18 02:38 UTC. Time now 2018-Jul-18 04:59 UTC.
Position N 48°06' W 122°39'.

; draft 5 m.

Type: Towing. MMSI: 368720000.

Date/timePositionNaut miles runAvg speedWind from/ knotsBaromVisibWave heightAir tempDewpointWater temp
2018-Jul-18 02:38N 48°06' W 122°39'1 4.2
2018-Jul-18 02:30N 48°06' W 122°38'9 5.5
2018-Jul-18 00:51N 47°58' W 122°33'2 5.4
2018-Jul-18 00:30N 47°57' W 122°30'3 6.0
2018-Jul-18 00:00N 47°54' W 122°28'3 6.3
2018-Jul-17 23:30N 47°51' W 122°27'4 7.5
2018-Jul-17 23:00N 47°47' W 122°26'4 7.4
2018-Jul-17 22:30N 47°44' W 122°26'4 7.6
2018-Jul-17 22:00N 47°40' W 122°27'4 8.1
2018-Jul-17 21:30N 47°36' W 122°26'4 7.5
2018-Jul-17 21:00N 47°32' W 122°25'4 7.1
2018-Jul-17 20:30N 47°29' W 122°24'4 7.4
2018-Jul-17 20:00N 47°25' W 122°22'3 6.4
2018-Jul-17 19:30N 47°22' W 122°22'4 7.4
2018-Jul-17 19:00N 47°20' W 122°26'3 0.3
2018-Jul-17 08:49N 47°17' W 122°25'0 0.0
2018-Jul-17 08:07N 47°17' W 122°25'0 0.0
2018-Jul-17 07:55N 47°17' W 122°25'0 0.0
2018-Jul-17 07:28N 47°17' W 122°25'0 0.0
2018-Jul-17 06:58N 47°17' W 122°25'0 0.0
2018-Jul-17 06:22N 47°17' W 122°25'0 0.0
2018-Jul-17 05:55N 47°17' W 122°25'0 0.0
2018-Jul-17 05:22N 47°17' W 122°25'0 0.0
2018-Jul-17 04:58N 47°17' W 122°25'0 0.0
2018-Jul-17 04:22N 47°17' W 122°25'0 0.0
2018-Jul-17 03:52N 47°17' W 122°25'0 0.0
2018-Jul-17 03:19N 47°17' W 122°25'0 0.0
2018-Jul-17 02:55N 47°17' W 122°25'0 0.0
2018-Jul-17 02:28N 47°17' W 122°25'0 0.0
2018-Jul-17 01:58N 47°17' W 122°25'0 0.0
2018-Jul-17 01:19N 47°17' W 122°25'0 0.0
2018-Jul-17 00:58N 47°17' W 122°25'0 0.0
2018-Jul-17 00:25N 47°17' W 122°25'0 0.0
2018-Jul-16 22:28N 47°17' W 122°25'0 0.0
2018-Jul-16 21:49N 47°17' W 122°25'0 0.0
2018-Jul-16 21:22N 47°17' W 122°25'0 0.0
2018-Jul-16 20:58N 47°17' W 122°25'0 0.0
2018-Jul-16 20:25N 47°17' W 122°25'0 0.0
2018-Jul-16 19:43N 47°17' W 122°25'0 0.0
2018-Jul-16 19:19N 47°17' W 122°25'0 0.0
2018-Jul-16 18:55N 47°17' W 122°25'0 0.0
2018-Jul-16 16:22N 47°17' W 122°25'0 0.0
2018-Jul-16 15:58N 47°17' W 122°25'0 0.0
2018-Jul-16 15:28N 47°17' W 122°25'0 0.0
2018-Jul-16 14:49N 47°17' W 122°25'0 0.0
2018-Jul-16 14:22N 47°17' W 122°25'0 0.0
2018-Jul-16 13:52N 47°17' W 122°25'0 0.0
2018-Jul-16 13:28N 47°17' W 122°25'0 0.0
2018-Jul-16 11:58N 47°17' W 122°25'0 0.0
2018-Jul-16 11:19N 47°17' W 122°25'0 0.0
2018-Jul-16 10:58N 47°17' W 122°25'0 0.0
2018-Jul-16 06:37N 47°17' W 122°25'0 0.0
2018-Jul-16 06:22N 47°17' W 122°25'0 0.0
2018-Jul-16 04:58N 47°17' W 122°25'0 0.0
2018-Jul-16 04:28N 47°17' W 122°25'0 0.0
2018-Jul-16 03:55N 47°17' W 122°25'0 0.0
2018-Jul-16 02:55N 47°17' W 122°25'0 0.0
2018-Jul-16 01:22N 47°17' W 122°25'0 0.0
2018-Jul-16 00:49N 47°17' W 122°25'0 0.0
2018-Jul-15 23:46N 47°17' W 122°25'0 0.0
2018-Jul-15 23:28N 47°17' W 122°25'0 0.0
2018-Jul-15 22:58N 47°17' W 122°25'0 0.0
2018-Jul-15 21:46N 47°17' W 122°25'0 0.0
2018-Jul-15 21:28N 47°17' W 122°25'0 0.0
2018-Jul-15 20:02N 47°17' W 122°25'0 0.0
2018-Jul-15 19:59N 47°17' W 122°25'0 0.2
2018-Jul-15 19:26N 47°17' W 122°25'0 0.7
2018-Jul-15 19:01N 47°17' W 122°25'2 3.2
2018-Jul-15 18:31N 47°17' W 122°27'0 0.5
2018-Jul-15 18:01N 47°17' W 122°27'1 2.8
2018-Jul-15 17:30N 47°17' W 122°25'0 0.1
2018-Jul-15 16:58N 47°17' W 122°25'0 0.1
2018-Jul-15 16:30N 47°17' W 122°25'0 0.0
2018-Jul-15 16:00N 47°17' W 122°25'0 0.0
2018-Jul-15 15:30N 47°17' W 122°25'0 0.0
2018-Jul-15 15:00N 47°17' W 122°25'0 0.0
2018-Jul-15 14:24N 47°17' W 122°25'0 0.0
2018-Jul-15 14:00N 47°17' W 122°25'0 0.0
2018-Jul-15 13:30N 47°17' W 122°25'0 0.0
2018-Jul-15 13:00N 47°17' W 122°25'0 0.0
2018-Jul-15 12:30N 47°17' W 122°25'0 0.0
2018-Jul-15 12:00N 47°17' W 122°25'0 0.0
2018-Jul-15 11:30N 47°17' W 122°25'0 0.0
2018-Jul-15 10:48N 47°17' W 122°25'0 0.0
2018-Jul-15 10:24N 47°17' W 122°25'0 0.0
2018-Jul-15 09:54N 47°17' W 122°25'0 0.0
2018-Jul-15 09:30N 47°17' W 122°25'0 0.0
2018-Jul-15 09:00N 47°17' W 122°25'0 0.0
2018-Jul-15 08:30N 47°17' W 122°25'0 0.0
2018-Jul-15 08:00N 47°17' W 122°25'0 0.0
2018-Jul-15 07:24N 47°17' W 122°25'0 0.0
2018-Jul-15 07:00N 47°17' W 122°25'0 0.0
2018-Jul-15 06:30N 47°17' W 122°25'0 0.0
2018-Jul-15 05:42N 47°17' W 122°25'0 0.0
2018-Jul-15 04:42N 47°17' W 122°25'0 0.0
2018-Jul-15 02:24N 47°17' W 122°25'0 0.0
2018-Jul-15 01:06N 47°17' W 122°25'0 0.0
2018-Jul-15 00:54N 47°17' W 122°25'0 0.0
2018-Jul-15 00:30N 47°17' W 122°25'0 0.0
2018-Jul-14 23:54N 47°17' W 122°25'0 0.0
2018-Jul-14 23:12N 47°17' W 122°25'0 0.0
2018-Jul-14 21:54N 47°17' W 122°25'0 0.0
2018-Jul-14 21:30N 47°17' W 122°25'0 0.0
2018-Jul-14 21:00N 47°17' W 122°25'0 0.0
2018-Jul-14 20:24N 47°17' W 122°25'0 0.0
2018-Jul-14 19:48N 47°17' W 122°25'0 0.0
2018-Jul-14 19:30N 47°17' W 122°25'0 0.0
2018-Jul-14 19:00N 47°17' W 122°25'0 0.0
2018-Jul-14 18:30N 47°17' W 122°25'0 0.0
2018-Jul-14 18:00N 47°17' W 122°25'0 0.0
2018-Jul-14 17:24N 47°17' W 122°25'0 0.0
2018-Jul-14 17:00N 47°17' W 122°25'0 0.0
2018-Jul-14 16:30N 47°17' W 122°25'0 0.0
2018-Jul-14 16:00N 47°17' W 122°25'0 0.0
2018-Jul-14 15:30N 47°17' W 122°25'0 0.0
2018-Jul-14 14:48N 47°17' W 122°25'0 0.0
2018-Jul-14 14:24N 47°17' W 122°25'0 0.0
2018-Jul-14 13:30N 47°17' W 122°25'0 0.0
2018-Jul-14 13:00N 47°17' W 122°25'0 0.0
2018-Jul-14 12:30N 47°17' W 122°25'0 0.0
2018-Jul-14 12:00N 47°17' W 122°25'0 0.0
2018-Jul-14 11:18N 47°17' W 122°25'0 0.0
2018-Jul-14 10:48N 47°17' W 122°25'0 0.0
2018-Jul-14 10:30N 47°17' W 122°25'0 0.0
2018-Jul-14 09:54N 47°17' W 122°25'0 0.0
2018-Jul-14 09:30N 47°17' W 122°25'0 0.0
2018-Jul-14 09:00N 47°17' W 122°25'0 0.0
2018-Jul-14 08:30N 47°17' W 122°25'0 0.0
2018-Jul-14 08:00N 47°17' W 122°25'0 0.0
2018-Jul-14 07:30N 47°17' W 122°25'0 0.0
2018-Jul-14 06:54N 47°17' W 122°25'0 0.0
2018-Jul-14 06:30N 47°17' W 122°25'0 0.0
2018-Jul-14 06:00N 47°17' W 122°25'0 0.0
2018-Jul-14 05:30N 47°17' W 122°25'0 0.0
2018-Jul-14 05:00N 47°17' W 122°25'0 0.0
2018-Jul-14 04:30N 47°17' W 122°25'0 0.0
2018-Jul-14 03:54N 47°17' W 122°25'0 0.0
2018-Jul-14 03:30N 47°17' W 122°25'0 0.0
2018-Jul-14 02:48N 47°17' W 122°25'0 0.0
2018-Jul-14 02:12N 47°17' W 122°25'0 0.0
2018-Jul-14 02:00N 47°17' W 122°25'0 0.0
2018-Jul-14 01:30N 47°17' W 122°25'0 0.0
2018-Jul-14 01:00N 47°17' W 122°25'0 0.0
2018-Jul-13 23:24N 47°17' W 122°25'0 0.0
2018-Jul-13 23:00N 47°17' W 122°25'0 0.0
2018-Jul-13 21:30N 47°17' W 122°25'0 0.0
2018-Jul-13 20:56N 47°17' W 122°25'0 0.0
2018-Jul-13 20:30N 47°17' W 122°25'0 0.0
2018-Jul-13 18:31N 47°17' W 122°25'0 0.0
2018-Jul-13 18:29N 47°17' W 122°25'2 4.2
2018-Jul-13 17:58N 47°18' W 122°28'1 2.2
2018-Jul-13 17:28N 47°18' W 122°29'4 7.8
2018-Jul-13 17:00N 47°21' W 122°32'4 8.3
2018-Jul-13 16:30N 47°26' W 122°32'4 8.3
2018-Jul-13 16:00N 47°29' W 122°30'3 5.8
2018-Jul-13 15:30N 47°32' W 122°32'0 0.2
2018-Jul-13 14:58N 47°32' W 122°32'0 0.0
2018-Jul-13 13:58N 47°32' W 122°32'0 0.0
2018-Jul-13 13:28N 47°32' W 122°32'0 0.0
2018-Jul-13 12:58N 47°32' W 122°32'0 0.0
2018-Jul-13 12:25N 47°32' W 122°32'0 0.0
2018-Jul-13 11:55N 47°32' W 122°32'0 0.0
2018-Jul-13 11:28N 47°32' W 122°32'0 0.0
2018-Jul-13 10:58N 47°32' W 122°32'0 0.0
2018-Jul-13 10:28N 47°32' W 122°32'0 0.0
2018-Jul-13 09:58N 47°32' W 122°32'0 0.0
2018-Jul-13 09:28N 47°32' W 122°32'0 0.0
2018-Jul-13 08:58N 47°32' W 122°32'0 0.0
2018-Jul-13 08:28N 47°32' W 122°32'0 0.0
2018-Jul-13 07:58N 47°32' W 122°32'0 0.0
2018-Jul-13 07:28N 47°32' W 122°32'0 0.1
2018-Jul-13 06:58N 47°32' W 122°32'0 0.0
2018-Jul-13 06:28N 47°32' W 122°32'0 0.1
2018-Jul-13 05:58N 47°32' W 122°32'0 0.0
2018-Jul-13 05:28N 47°32' W 122°32'0 0.0
2018-Jul-13 04:58N 47°32' W 122°32'0 0.0
2018-Jul-13 04:28N 47°32' W 122°32'0 0.1
2018-Jul-13 03:58N 47°32' W 122°32'1 2.0
2018-Jul-13 03:30N 47°33' W 122°31'2 3.3
2018-Jul-13 03:00N 47°34' W 122°29'4 7.6
2018-Jul-13 02:30N 47°38' W 122°28'5 9.0
2018-Jul-13 02:00N 47°42' W 122°28'4 9.0
2018-Jul-13 01:30N 47°47' W 122°27'5 9.1
2018-Jul-13 01:00N 47°51' W 122°29'4 9.0
2018-Jul-13 00:30N 47°56' W 122°31'710.5
2018-Jul-12 23:51N 48°01' W 122°38'4 8.9
2018-Jul-12 23:22N 48°05' W 122°40'51 8.4
2018-Jul-12 17:15N 48°13' W 123°56'2 6.8
2018-Jul-12 16:58N 48°13' W 123°58'4 8.1
2018-Jul-12 16:29N 48°15' W 124°04'1 2.7
2018-Jul-12 16:00N 48°16' W 124°05'1 1.4
2018-Jul-12 15:30N 48°16' W 124°06'3 5.4
2018-Jul-12 15:00N 48°18' W 124°09'2 4.6
2018-Jul-12 14:30N 48°18' W 124°13'1 1.5
2018-Jul-12 13:59N 48°18' W 124°14'2 3.6
2018-Jul-12 13:30N 48°19' W 124°16'2 4.1
2018-Jul-12 12:58N 48°20' W 124°19'2 4.5
2018-Jul-12 12:30N 48°21' W 124°22'2 5.0
2018-Jul-12 12:00N 48°22' W 124°25'3 5.1
2018-Jul-12 11:28N 48°23' W 124°29'2 5.1
2018-Jul-12 11:00N 48°24' W 124°32'3 5.1
2018-Jul-12 10:30N 48°25' W 124°36'3 5.1
2018-Jul-12 10:00N 48°26' W 124°39'3 5.4
2018-Jul-12 09:30N 48°27' W 124°43'3 5.6
2018-Jul-12 09:00N 48°29' W 124°46'3 5.4
2018-Jul-12 08:29N 48°32' W 124°47'3 5.9
2018-Jul-12 08:00N 48°31' W 124°43'3 6.2
2018-Jul-12 07:30N 48°30' W 124°39'3 5.6
2018-Jul-12 07:00N 48°28' W 124°35'3 5.6
2018-Jul-12 06:30N 48°27' W 124°31'3 5.7
2018-Jul-12 06:00N 48°26' W 124°27'3 5.9
2018-Jul-12 05:30N 48°25' W 124°23'2 5.0
2018-Jul-12 05:00N 48°24' W 124°19'3 6.9
2018-Jul-12 04:30N 48°23' W 124°15'4 7.4
2018-Jul-12 04:00N 48°21' W 124°10'4 7.7
2018-Jul-12 03:30N 48°20' W 124°04'4 7.7
2018-Jul-12 03:00N 48°18' W 123°59'4 7.6
2018-Jul-12 02:29N 48°17' W 123°53'52 7.0
2018-Jul-11 19:06N 48°04' W 122°38'1 7.4
2018-Jul-11 18:56N 48°03' W 122°38'4 7.4
2018-Jul-11 18:24N 47°59' W 122°35'3 7.5
2018-Jul-11 18:00N 47°57' W 122°32'1 2.6
2018-Jul-11 17:30N 47°57' W 122°30'1 1.3
2018-Jul-11 17:00N 47°58' W 122°29'0 0.7
2018-Jul-11 16:30N 47°58' W 122°29'0 0.3
2018-Jul-11 16:00N 47°58' W 122°29'0 0.8
2018-Jul-11 15:31N 47°58' W 122°28'0 0.3
2018-Jul-11 14:58N 47°58' W 122°28'0 0.0
2018-Jul-11 14:28N 47°58' W 122°28'0 0.0
2018-Jul-11 13:58N 47°58' W 122°28'0 0.0
2018-Jul-11 13:28N 47°58' W 122°28'0 0.1
2018-Jul-11 12:58N 47°58' W 122°28'0 0.0
2018-Jul-11 12:28N 47°58' W 122°28'0 0.0
2018-Jul-11 11:58N 47°58' W 122°28'0 0.1
2018-Jul-11 11:28N 47°58' W 122°28'0 0.1
2018-Jul-11 10:52N 47°58' W 122°28'0 0.0
2018-Jul-11 10:19N 47°58' W 122°28'0 0.1
2018-Jul-11 09:58N 47°58' W 122°28'0 0.0
2018-Jul-11 09:28N 47°58' W 122°28'0 0.0
2018-Jul-11 08:58N 47°58' W 122°28'0 0.0
2018-Jul-11 08:28N 47°58' W 122°28'0 0.0
2018-Jul-11 07:58N 47°58' W 122°28'0 0.0
2018-Jul-11 07:28N 47°58' W 122°28'0 0.0
2018-Jul-11 06:58N 47°58' W 122°28'0 0.0
2018-Jul-11 06:28N 47°58' W 122°28'0 0.0
2018-Jul-11 05:58N 47°58' W 122°28'0 0.0
2018-Jul-11 05:22N 47°58' W 122°28'0 0.8
2018-Jul-11 04:54N 47°58' W 122°29'0 0.1
2018-Jul-11 04:30N 47°58' W 122°29'0 0.0
2018-Jul-11 04:00N 47°58' W 122°29'0 0.1
2018-Jul-11 03:30N 47°58' W 122°29'0 0.0
2018-Jul-11 03:00N 47°58' W 122°29'0 0.0
2018-Jul-11 02:30N 47°58' W 122°29'0 0.0
2018-Jul-11 02:00N 47°58' W 122°29'0 0.9
2018-Jul-11 01:28N 47°57' W 122°29'2 4.5
2018-Jul-11 01:00N 47°55' W 122°29'611.4
2018-Jul-11 00:30N 47°50' W 122°27'510.5
2018-Jul-11 00:00N 47°44' W 122°26'510.8
2018-Jul-10 23:30N 47°39' W 122°27'510.5
2018-Jul-10 23:00N 47°34' W 122°26'5 9.2
2018-Jul-10 22:30N 47°30' W 122°30'510.2
2018-Jul-10 22:00N 47°25' W 122°32'5 8.5
2018-Jul-10 21:28N 47°20' W 122°32'2 4.1
2018-Jul-10 21:00N 47°19' W 122°30'4 0.4
2018-Jul-10 09:39N 47°17' W 122°25'0 0.0
2018-Jul-10 09:15N 47°17' W 122°25'0 0.0
2018-Jul-09 09:51N 47°17' W 122°25'0 0.0
2018-Jul-09 07:21N 47°17' W 122°25'0 0.0
2018-Jul-09 06:57N 47°17' W 122°25'0 0.0
2018-Jul-09 05:15N 47°17' W 122°25'0 0.0
2018-Jul-08 12:57N 47°17' W 122°25'0 0.0
2018-Jul-08 11:39N 47°17' W 122°25'0 0.0
2018-Jul-08 11:09N 47°17' W 122°25'0 0.0
2018-Jul-08 10:57N 47°17' W 122°25'  

Dump ship's entire track history